createdAt,value
2022-09-18T00:01:59.429Z,7.8
2022-09-18T00:17:42.354Z,6.9
2022-09-18T00:33:24.739Z,7.6
2022-09-18T00:49:07.290Z,5.8
2022-09-18T01:04:49.958Z,5.4
2022-09-18T01:20:32.279Z,4.6
2022-09-18T01:36:14.741Z,2.9
2022-09-18T01:51:57.326Z,2.6
2022-09-18T02:07:39.703Z,2
2022-09-18T02:23:22.615Z,2.6
2022-09-18T02:39:05.265Z,2.9
2022-09-18T02:54:48.289Z,4.4
2022-09-18T03:10:31.303Z,8.2
2022-09-18T03:26:13.826Z,12.8
2022-09-18T03:41:56.889Z,13.3
2022-09-18T03:57:39.629Z,16.79
2022-09-18T04:13:22.621Z,16.7
2022-09-18T04:29:05.136Z,15.4
2022-09-18T04:44:47.420Z,18
2022-09-18T05:00:29.870Z,15.4
2022-09-18T05:16:12.295Z,13.5
2022-09-18T05:31:54.784Z,19.7
2022-09-18T05:47:37.642Z,11.6
2022-09-18T06:03:20.424Z,11.1
2022-09-18T06:19:03.362Z,11.2
2022-09-18T06:34:45.893Z,11.1
2022-09-18T06:50:28.447Z,12.4
2022-09-18T07:06:10.562Z,9.39
2022-09-18T07:21:52.935Z,12.1
2022-09-18T07:37:35.126Z,11.3
2022-09-18T07:53:17.727Z,15.5
2022-09-18T08:09:00.156Z,9.1
2022-09-18T08:24:42.999Z,8.5
2022-09-18T08:40:25.438Z,7.9
2022-09-18T08:56:07.870Z,8.2
2022-09-18T09:11:50.573Z,6.5
2022-09-18T09:27:33.148Z,7.4
2022-09-18T09:43:15.935Z,5.8
2022-09-18T09:44:03.215Z,8
2022-09-18T09:59:45.807Z,8.2
2022-09-18T10:15:28.398Z,6.7
2022-09-18T10:31:10.619Z,10.2
2022-09-18T10:46:52.873Z,5.7
2022-09-18T11:02:35.657Z,6.8
2022-09-18T11:18:17.994Z,5.9
2022-09-18T11:34:00.375Z,5.3
2022-09-18T11:49:43.447Z,5.7
2022-09-18T12:05:25.650Z,5.3
2022-09-18T12:21:06.291Z,5.8
2022-09-18T12:36:49.223Z,3.8
2022-09-18T12:52:32.037Z,6.5
2022-09-18T13:08:14.667Z,4.3
2022-09-18T13:23:58.369Z,4.1
2022-09-18T13:39:40.397Z,4.5
2022-09-18T13:55:22.559Z,3.7
2022-09-18T14:11:04.951Z,3.1
2022-09-18T14:26:47.689Z,2.6
2022-09-18T14:42:30.083Z,2.5
2022-09-18T14:58:12.338Z,3.2
2022-09-18T15:13:55.043Z,3.9
2022-09-18T15:29:37.353Z,3.6
2022-09-18T15:45:19.402Z,5.5
2022-09-18T16:01:02.252Z,4.1
2022-09-18T16:16:45.018Z,5.7
2022-09-18T16:32:27.217Z,2.6
2022-09-18T16:48:10.256Z,2.5
2022-09-18T17:03:52.832Z,5
2022-09-18T17:19:35.530Z,5.8
2022-09-18T17:35:17.833Z,3.8
2022-09-18T17:51:00.339Z,4
2022-09-18T18:06:43.056Z,4.69
2022-09-18T18:22:25.151Z,5.2
2022-09-18T18:38:07.350Z,5.8
2022-09-18T18:53:49.524Z,6.8
2022-09-18T19:09:32.131Z,6.5
2022-09-18T19:25:14.640Z,5.8
2022-09-18T19:40:57.289Z,6
2022-09-18T19:56:40.208Z,8.39
2022-09-18T20:12:22.566Z,7.4
2022-09-18T20:28:04.902Z,5.6
2022-09-18T20:43:47.361Z,5.3
2022-09-18T20:59:30.041Z,5.4
2022-09-18T21:15:13.082Z,8.8
2022-09-18T21:30:55.490Z,8.5
2022-09-18T21:46:37.864Z,7.9
2022-09-18T22:02:20.664Z,8.2
2022-09-18T22:18:03.060Z,7.6
2022-09-18T22:33:46.102Z,7.8
2022-09-18T22:49:28.434Z,8.89
2022-09-18T23:05:10.816Z,9.3
2022-09-18T23:20:52.917Z,11.9
2022-09-18T23:36:35.251Z,9.3
2022-09-18T23:52:18.253Z,8.6
